Aviation Digital Data Service (ADDS)

Output produced by METARs form (1141 UTC 24 May 2022)
found at http://www.aviationweather.gov/metar/data/
 
VTBS 241130Z 21009KT 9999 FEW020 30/23 Q1007 NOSIG
VTBS 241100Z 21010KT 9999 FEW020 31/23 Q1006 NOSIG
VTBS 241030Z 22010KT 9999 FEW020 31/23 Q1006 NOSIG
VTBS 241000Z 20010KT 9999 FEW020 31/23 Q1006 NOSIG
VTBS 240930Z 21010KT 9999 FEW020 31/24 Q1005 NOSIG
VTBS 240900Z 21010KT 9999 FEW020 31/24 Q1006 NOSIG
VTBS 240830Z 21012KT 9999 FEW020 SCT030 BKN100 32/24 Q1006 NOSIG
VTBS 240800Z 22012KT 9999 FEW020 SCT030 BKN100 32/24 Q1006 NOSIG
VTBS 240730Z 21014KT 9999 FEW020 SCT030 BKN100 32/24 Q1006 NOSIG
VTBS 240700Z 21011KT 9999 FEW020 SCT030 32/24 Q1007 NOSIG
VTBS 240630Z 22013KT 9999 FEW020 BKN030 31/24 Q1007 NOSIG
VTBS 240600Z 21013KT 9999 FEW020 BKN030 31/24 Q1008 NOSIG
VTBS 240530Z 21013KT 9999 SCT020 BKN035 31/24 Q1008 NOSIG
VTBS 240500Z 20014KT 9999 FEW020 SCT035 31/23 Q1008 NOSIG
VTBS 240430Z 20013KT 9999 FEW020 SCT035 32/23 Q1008 NOSIG
VTBS 240400Z 20013KT 9999 FEW020 32/23 Q1008 NOSIG
VTBS 240330Z 20012KT 9999 FEW020 32/23 Q1008 NOSIG
VTBS 240300Z 21013KT 9999 FEW020 32/23 Q1008 NOSIG
VTBS 240230Z 19014KT 9999 FEW020 31/24 Q1008 NOSIG
VTBS 240200Z 19014KT 9999 FEW020 31/23 Q1008 NOSIG
VTBS 240130Z 19013KT 9999 FEW020 31/23 Q1008 NOSIG
VTBS 240100Z 20012KT 9999 FEW020 SCT100 30/23 Q1007 NOSIG
VTBS 240030Z 20008KT 9999 FEW020 29/23 Q1007 NOSIG
VTBS 240000Z 19008KT 9999 FEW020 29/23 Q1006 NOSIG
VTBS 232330Z 19005KT 9999 FEW020 29/23 Q1006 NOSIG
VTBS 232300Z 19003KT 9999 FEW020 28/23 Q1006 NOSIG
VTBS 232230Z 23002KT 9999 FEW020 28/23 Q1005 NOSIG
VTBS 232200Z 19002KT 9999 FEW020 28/23 Q1005 NOSIG
VTBS 232130Z 21003KT 9999 FEW020 28/23 Q1005 NOSIG
VTBS 232100Z 00000KT 9999 FEW020 28/22 Q1005 NOSIG
VTBS 232030Z 26002KT 9999 FEW020 28/22 Q1005 NOSIG
VTBS 232000Z 25002KT 9999 FEW020 29/21 Q1005 NOSIG
VTBS 231930Z 25003KT 9999 FEW020 29/22 Q1005 NOSIG
VTBS 231900Z 25004KT 9999 FEW020 29/21 Q1005 NOSIG
VTBS 231830Z 25004KT 9999 FEW020 29/22 Q1005 NOSIG
VTBS 231800Z 22003KT 9999 FEW020 29/23 Q1005 NOSIG
VTBS 231730Z 22004KT 9999 FEW020 29/23 Q1006 NOSIG
VTBS 231700Z 22004KT 9999 FEW020 29/24 Q1006 NOSIG
VTBS 231630Z 22004KT 9999 FEW020 29/24 Q1006 NOSIG
VTBS 231600Z 21006KT 9999 FEW020 30/24 Q1006 NOSIG
VTBS 231530Z 20009KT 9999 FEW020 29/24 Q1006 NOSIG
VTBS 231500Z 20008KT 9999 FEW020 29/24 Q1006 NOSIG
VTBS 231430Z 19007KT 9999 FEW020 29/24 Q1006 NOSIG
VTBS 231400Z 19009KT 9999 FEW020 29/24 Q1005 NOSIG
VTBS 231330Z 19009KT 9999 FEW020 29/23 Q1005 NOSIG
VTBS 231300Z 20009KT 9999 FEW020 29/25 Q1004 NOSIG
VTBS 231230Z 20011KT 9999 FEW020 29/25 Q1004 NOSIG
VTBS 231200Z 18010KT 9999 FEW020 29/25 Q1003 NOSIG
VTBS 231130Z 18009KT 9999 FEW020 30/25 Q1003 NOSIG
VTBS 231100Z 20011KT 9999 FEW020 30/25 Q1003 NOSIG
TAF VTBS 241100Z 2412/2518 21010KT 9000 FEW020 SCT080 
     TEMPO 2412/2416 25010G25KT 4000 TSRA FEW018CB SCT035 BKN080